Dizelist — EMVZ — position and weather

sailwx.info

Track history (hours):
 
Tides and Currents Weather Stations Pressure Air Temp Water Temp Dewpoint Dewpoint Depression Visibility Wind Speed Wind Dir Waves Ship Positions

Dizelist

Last reported at 2014-May-20 15:11 UTC. Time now 2014-Sep-17 01:36 UTC.
Position N 44°36' E 033°25'.
Warning: this ship's position is months out of date.

Length 24 m; draft 1.8 m.

Type: Tug. MMSI: 272880800.

Date/timePositionNaut miles runAvg speedWind from/ knotsBaromVisibWave heightAir tempDewpointWater temp
2014-May-20 15:11N 44°36' E 033°25'5 7.6
2014-May-20 14:33N 44°37' E 033°31'1 0.3
2014-May-20 10:33N 44°37' E 033°33'4 3.7
2014-May-20 09:33N 44°37' E 033°28'1 0.5
2014-May-20 08:33N 44°36' E 033°28'0 0.0
2014-May-20 07:34N 44°36' E 033°28'5 0.3
2014-May-19 13:33N 44°37' E 033°35'3 3.4
2014-May-19 12:33N 44°37' E 033°30'2 1.6
2014-May-19 11:33N 44°36' E 033°28'0 0.0
2014-May-19 10:33N 44°36' E 033°28'0 0.0
2014-May-19 09:33N 44°36' E 033°28'0 0.1
2014-May-19 08:33N 44°36' E 033°28'1 1.4
2014-May-19 07:34N 44°37' E 033°26'  
Track history (hours):
 
Tides and Currents Weather Stations Pressure Air Temp Water Temp Dewpoint Dewpoint Depression Visibility Wind Speed Wind Dir Waves Ship Positions

Dizelist

Last reported at 2014-May-20 15:11 UTC. Time now 2014-Sep-17 01:36 UTC.
Position N 44°36' E 033°25'.
Warning: this ship's position is months out of date.

Length 24 m; draft 1.8 m.

Type: Tug. MMSI: 272880800.

Date/timePositionNaut miles runAvg speedWind from/ knotsBaromVisibWave heightAir tempDewpointWater temp
2014-May-20 15:11N 44°36' E 033°25'5 7.6
2014-May-20 14:33N 44°37' E 033°31'1 0.3
2014-May-20 10:33N 44°37' E 033°33'4 3.7
2014-May-20 09:33N 44°37' E 033°28'1 0.5
2014-May-20 08:33N 44°36' E 033°28'0 0.0
2014-May-20 07:34N 44°36' E 033°28'5 0.3
2014-May-19 13:33N 44°37' E 033°35'3 3.4
2014-May-19 12:33N 44°37' E 033°30'2 1.6
2014-May-19 11:33N 44°36' E 033°28'0 0.0
2014-May-19 10:33N 44°36' E 033°28'0 0.0
2014-May-19 09:33N 44°36' E 033°28'0 0.1
2014-May-19 08:33N 44°36' E 033°28'1 1.4
2014-May-19 07:34N 44°37' E 033°26'  

Dump ship's entire track history